sensor_id;sensor_type;location;lat;lon;timestamp;temperature;humidity
51801;DHT22;37855;53.204;6.568;2023-06-22T00:00:55;20.00;69.80
51801;DHT22;37855;53.204;6.568;2023-06-22T00:03:22;20.10;69.90
51801;DHT22;37855;53.204;6.568;2023-06-22T00:05:52;20.20;69.70
51801;DHT22;37855;53.204;6.568;2023-06-22T00:08:19;20.30;69.60
51801;DHT22;37855;53.204;6.568;2023-06-22T00:10:46;20.40;69.40
51801;DHT22;37855;53.204;6.568;2023-06-22T00:13:12;20.40;69.30
51801;DHT22;37855;53.204;6.568;2023-06-22T00:15:40;20.50;69.20
51801;DHT22;37855;53.204;6.568;2023-06-22T00:18:07;20.40;69.20
51801;DHT22;37855;53.204;6.568;2023-06-22T00:20:33;20.30;69.20
51801;DHT22;37855;53.204;6.568;2023-06-22T00:23:02;20.20;69.40
51801;DHT22;37855;53.204;6.568;2023-06-22T00:25:34;20.00;69.60
51801;DHT22;37855;53.204;6.568;2023-06-22T00:27:59;19.90;69.90
51801;DHT22;37855;53.204;6.568;2023-06-22T00:30:25;19.80;70.20
51801;DHT22;37855;53.204;6.568;2023-06-22T00:32:50;19.90;70.30
51801;DHT22;37855;53.204;6.568;2023-06-22T00:35:16;20.00;70.10
51801;DHT22;37855;53.204;6.568;2023-06-22T00:37:42;20.10;70.00
51801;DHT22;37855;53.204;6.568;2023-06-22T00:40:09;20.10;69.80
51801;DHT22;37855;53.204;6.568;2023-06-22T00:42:40;20.00;70.00
51801;DHT22;37855;53.204;6.568;2023-06-22T00:45:06;20.10;70.00
51801;DHT22;37855;53.204;6.568;2023-06-22T00:47:34;20.20;69.90
51801;DHT22;37855;53.204;6.568;2023-06-22T00:50:02;20.20;69.70
51801;DHT22;37855;53.204;6.568;2023-06-22T00:52:29;20.20;69.60
51801;DHT22;37855;53.204;6.568;2023-06-22T00:54:59;20.20;69.60
51801;DHT22;37855;53.204;6.568;2023-06-22T00:57:27;20.10;69.70
51801;DHT22;37855;53.204;6.568;2023-06-22T00:59:54;20.00;69.90
51801;DHT22;37855;53.204;6.568;2023-06-22T01:02:19;19.90;70.00
51801;DHT22;37855;53.204;6.568;2023-06-22T01:04:45;19.80;70.20
51801;DHT22;37855;53.204;6.568;2023-06-22T01:07:34;19.90;70.20
51801;DHT22;37855;53.204;6.568;2023-06-22T01:10:07;20.00;70.20
51801;DHT22;37855;53.204;6.568;2023-06-22T01:12:39;20.10;70.10
51801;DHT22;37855;53.204;6.568;2023-06-22T01:15:11;20.20;69.80
51801;DHT22;37855;53.204;6.568;2023-06-22T01:17:40;20.10;69.70
51801;DHT22;37855;53.204;6.568;2023-06-22T01:20:12;20.00;69.70
51801;DHT22;37855;53.204;6.568;2023-06-22T01:25:55;19.70;70.20
51801;DHT22;37855;53.204;6.568;2023-06-22T01:28:24;19.50;70.40
51801;DHT22;37855;53.204;6.568;2023-06-22T01:30:51;19.50;70.70
51801;DHT22;37855;53.204;6.568;2023-06-22T01:33:29;19.50;70.80
51801;DHT22;37855;53.204;6.568;2023-06-22T01:35:57;19.60;70.70
51801;DHT22;37855;53.204;6.568;2023-06-22T01:38:23;19.50;70.80
51801;DHT22;37855;53.204;6.568;2023-06-22T01:40:50;19.60;70.90
51801;DHT22;37855;53.204;6.568;2023-06-22T01:43:16;19.70;70.90
51801;DHT22;37855;53.204;6.568;2023-06-22T01:45:42;19.80;70.70
51801;DHT22;37855;53.204;6.568;2023-06-22T01:48:09;19.90;70.40
51801;DHT22;37855;53.204;6.568;2023-06-22T01:50:35;20.00;70.30
51801;DHT22;37855;53.204;6.568;2023-06-22T01:53:01;19.90;70.10
51801;DHT22;37855;53.204;6.568;2023-06-22T01:55:26;19.80;70.20
51801;DHT22;37855;53.204;6.568;2023-06-22T01:57:52;19.70;70.40
51801;DHT22;37855;53.204;6.568;2023-06-22T02:00:25;19.70;70.60
51801;DHT22;37855;53.204;6.568;2023-06-22T02:03:02;19.70;70.70
51801;DHT22;37855;53.204;6.568;2023-06-22T02:05:34;19.60;70.70
51801;DHT22;37855;53.204;6.568;2023-06-22T02:08:17;19.70;70.80
51801;DHT22;37855;53.204;6.568;2023-06-22T02:10:45;19.70;70.60
51801;DHT22;37855;53.204;6.568;2023-06-22T02:13:13;19.70;70.70
51801;DHT22;37855;53.204;6.568;2023-06-22T02:15:39;19.80;70.60
51801;DHT22;37855;53.204;6.568;2023-06-22T02:18:05;19.70;70.60
51801;DHT22;37855;53.204;6.568;2023-06-22T02:20:31;19.50;70.80
51801;DHT22;37855;53.204;6.568;2023-06-22T02:22:57;19.50;70.90
51801;DHT22;37855;53.204;6.568;2023-06-22T02:25:22;19.40;71.00
51801;DHT22;37855;53.204;6.568;2023-06-22T02:27:48;19.40;71.10
51801;DHT22;37855;53.204;6.568;2023-06-22T02:30:14;19.40;71.20
51801;DHT22;37855;53.204;6.568;2023-06-22T02:32:41;19.40;71.30
51801;DHT22;37855;53.204;6.568;2023-06-22T02:35:11;19.30;71.30
51801;DHT22;37855;53.204;6.568;2023-06-22T02:37:38;19.30;71.50
51801;DHT22;37855;53.204;6.568;2023-06-22T02:40:06;19.30;71.40
51801;DHT22;37855;53.204;6.568;2023-06-22T02:42:33;19.30;71.40
51801;DHT22;37855;53.204;6.568;2023-06-22T02:44:59;19.20;71.50
51801;DHT22;37855;53.204;6.568;2023-06-22T02:47:25;19.20;71.70
51801;DHT22;37855;53.204;6.568;2023-06-22T02:49:52;19.20;71.70
51801;DHT22;37855;53.204;6.568;2023-06-22T02:52:18;19.30;71.60
51801;DHT22;37855;53.204;6.568;2023-06-22T02:54:45;19.40;71.50
51801;DHT22;37855;53.204;6.568;2023-06-22T02:57:11;19.50;71.30
51801;DHT22;37855;53.204;6.568;2023-06-22T02:59:40;19.50;71.00
51801;DHT22;37855;53.204;6.568;2023-06-22T03:02:07;19.50;71.10
51801;DHT22;37855;53.204;6.568;2023-06-22T03:04:34;19.50;71.10
51801;DHT22;37855;53.204;6.568;2023-06-22T03:07:00;19.60;71.00
51801;DHT22;37855;53.204;6.568;2023-06-22T03:09:27;19.60;70.90
51801;DHT22;37855;53.204;6.568;2023-06-22T03:11:55;19.70;70.80
51801;DHT22;37855;53.204;6.568;2023-06-22T03:14:21;19.70;70.50
51801;DHT22;37855;53.204;6.568;2023-06-22T03:16:47;19.60;70.40
51801;DHT22;37855;53.204;6.568;2023-06-22T03:19:13;19.60;70.60
51801;DHT22;37855;53.204;6.568;2023-06-22T03:21:40;19.60;70.60
51801;DHT22;37855;53.204;6.568;2023-06-22T03:24:06;19.70;70.50
51801;DHT22;37855;53.204;6.568;2023-06-22T03:26:32;19.80;70.30
51801;DHT22;37855;53.204;6.568;2023-06-22T03:28:58;19.60;70.30
51801;DHT22;37855;53.204;6.568;2023-06-22T03:31:23;19.50;70.50
51801;DHT22;37855;53.204;6.568;2023-06-22T03:33:50;19.40;70.70
51801;DHT22;37855;53.204;6.568;2023-06-22T03:36:18;19.40;70.80
51801;DHT22;37855;53.204;6.568;2023-06-22T03:38:48;19.30;70.80
51801;DHT22;37855;53.204;6.568;2023-06-22T03:41:14;19.30;70.90
51801;DHT22;37855;53.204;6.568;2023-06-22T03:43:40;19.20;71.10
51801;DHT22;37855;53.204;6.568;2023-06-22T03:46:06;19.10;71.20
51801;DHT22;37855;53.204;6.568;2023-06-22T03:48:32;19.10;71.40
51801;DHT22;37855;53.204;6.568;2023-06-22T03:50:59;19.20;71.30
51801;DHT22;37855;53.204;6.568;2023-06-22T03:53:28;19.10;71.40
51801;DHT22;37855;53.204;6.568;2023-06-22T03:55:54;19.10;71.20
51801;DHT22;37855;53.204;6.568;2023-06-22T03:58:21;19.10;71.30
51801;DHT22;37855;53.204;6.568;2023-06-22T04:00:47;19.10;71.60
51801;DHT22;37855;53.204;6.568;2023-06-22T04:03:14;19.00;71.70
51801;DHT22;37855;53.204;6.568;2023-06-22T04:05:40;19.00;71.70
51801;DHT22;37855;53.204;6.568;2023-06-22T04:08:06;18.90;72.10
51801;DHT22;37855;53.204;6.568;2023-06-22T04:10:32;18.90;71.90
51801;DHT22;37855;53.204;6.568;2023-06-22T04:13:00;18.90;72.00
51801;DHT22;37855;53.204;6.568;2023-06-22T04:15:26;18.90;72.00
51801;DHT22;37855;53.204;6.568;2023-06-22T04:17:51;18.90;72.20
51801;DHT22;37855;53.204;6.568;2023-06-22T04:20:17;18.90;72.30
51801;DHT22;37855;53.204;6.568;2023-06-22T04:22:43;18.90;72.40
51801;DHT22;37855;53.204;6.568;2023-06-22T04:25:08;19.00;72.40
51801;DHT22;37855;53.204;6.568;2023-06-22T04:27:34;19.00;72.30
51801;DHT22;37855;53.204;6.568;2023-06-22T04:30:07;19.00;72.40
51801;DHT22;37855;53.204;6.568;2023-06-22T04:32:34;19.00;72.30
51801;DHT22;37855;53.204;6.568;2023-06-22T04:35:04;19.00;72.20
51801;DHT22;37855;53.204;6.568;2023-06-22T04:37:32;19.10;72.10
51801;DHT22;37855;53.204;6.568;2023-06-22T04:39:57;19.20;71.90
51801;DHT22;37855;53.204;6.568;2023-06-22T04:42:27;19.20;71.90
51801;DHT22;37855;53.204;6.568;2023-06-22T04:44:53;19.20;72.00
51801;DHT22;37855;53.204;6.568;2023-06-22T04:47:20;19.20;72.10
51801;DHT22;37855;53.204;6.568;2023-06-22T04:49:46;19.20;72.00
51801;DHT22;37855;53.204;6.568;2023-06-22T04:52:13;19.20;71.90
51801;DHT22;37855;53.204;6.568;2023-06-22T04:54:45;19.20;72.10
51801;DHT22;37855;53.204;6.568;2023-06-22T04:57:14;19.10;72.20
51801;DHT22;37855;53.204;6.568;2023-06-22T04:59:40;19.00;72.50
51801;DHT22;37855;53.204;6.568;2023-06-22T05:02:08;19.00;72.70
51801;DHT22;37855;53.204;6.568;2023-06-22T05:04:34;19.10;72.60
51801;DHT22;37855;53.204;6.568;2023-06-22T05:07:06;19.20;72.60
51801;DHT22;37855;53.204;6.568;2023-06-22T05:09:32;19.20;72.40
51801;DHT22;37855;53.204;6.568;2023-06-22T05:11:59;19.30;72.40
51801;DHT22;37855;53.204;6.568;2023-06-22T05:14:27;19.30;72.20
51801;DHT22;37855;53.204;6.568;2023-06-22T05:16:53;19.40;72.10
51801;DHT22;37855;53.204;6.568;2023-06-22T05:19:19;19.40;71.70
51801;DHT22;37855;53.204;6.568;2023-06-22T05:21:47;19.50;71.90
51801;DHT22;37855;53.204;6.568;2023-06-22T05:24:12;19.60;71.80
51801;DHT22;37855;53.204;6.568;2023-06-22T05:26:38;19.70;71.30
51801;DHT22;37855;53.204;6.568;2023-06-22T05:29:04;19.80;71.10
51801;DHT22;37855;53.204;6.568;2023-06-22T05:31:30;19.90;70.80
51801;DHT22;37855;53.204;6.568;2023-06-22T05:33:56;19.90;70.60
51801;DHT22;37855;53.204;6.568;2023-06-22T05:36:22;19.90;70.80
51801;DHT22;37855;53.204;6.568;2023-06-22T05:38:51;19.90;70.70
51801;DHT22;37855;53.204;6.568;2023-06-22T05:41:17;20.00;70.30
51801;DHT22;37855;53.204;6.568;2023-06-22T05:43:43;20.00;70.30
51801;DHT22;37855;53.204;6.568;2023-06-22T05:46:09;20.10;70.10
51801;DHT22;37855;53.204;6.568;2023-06-22T05:48:35;20.10;70.10
51801;DHT22;37855;53.204;6.568;2023-06-22T05:51:00;20.10;69.90
51801;DHT22;37855;53.204;6.568;2023-06-22T05:53:26;20.20;69.80
51801;DHT22;37855;53.204;6.568;2023-06-22T05:55:52;20.20;69.80
51801;DHT22;37855;53.204;6.568;2023-06-22T05:58:18;20.20;69.40
51801;DHT22;37855;53.204;6.568;2023-06-22T06:00:47;20.20;69.20
51801;DHT22;37855;53.204;6.568;2023-06-22T06:03:13;20.30;68.70
51801;DHT22;37855;53.204;6.568;2023-06-22T06:05:45;20.20;69.10
51801;DHT22;37855;53.204;6.568;2023-06-22T06:08:11;20.10;69.00
51801;DHT22;37855;53.204;6.568;2023-06-22T06:10:37;20.10;69.10
51801;DHT22;37855;53.204;6.568;2023-06-22T06:13:03;20.10;69.00
51801;DHT22;37855;53.204;6.568;2023-06-22T06:15:31;20.20;69.20
51801;DHT22;37855;53.204;6.568;2023-06-22T06:17:58;20.30;69.10
51801;DHT22;37855;53.204;6.568;2023-06-22T06:20:26;20.20;68.80
51801;DHT22;37855;53.204;6.568;2023-06-22T06:22:55;20.30;68.60
51801;DHT22;37855;53.204;6.568;2023-06-22T06:25:21;20.30;68.40
51801;DHT22;37855;53.204;6.568;2023-06-22T06:27:48;20.40;68.00
51801;DHT22;37855;53.204;6.568;2023-06-22T06:30:18;20.40;68.40
51801;DHT22;37855;53.204;6.568;2023-06-22T06:32:47;20.40;68.30
51801;DHT22;37855;53.204;6.568;2023-06-22T06:35:14;20.50;68.30
51801;DHT22;37855;53.204;6.568;2023-06-22T06:37:43;20.60;67.90
51801;DHT22;37855;53.204;6.568;2023-06-22T06:40:11;20.60;67.80
51801;DHT22;37855;53.204;6.568;2023-06-22T06:42:41;20.70;68.00
51801;DHT22;37855;53.204;6.568;2023-06-22T06:45:11;20.70;68.10
51801;DHT22;37855;53.204;6.568;2023-06-22T06:47:38;20.90;67.60
51801;DHT22;37855;53.204;6.568;2023-06-22T06:50:07;21.00;67.40
51801;DHT22;37855;53.204;6.568;2023-06-22T06:52:33;21.20;67.10
51801;DHT22;37855;53.204;6.568;2023-06-22T06:55:03;21.20;66.70
51801;DHT22;37855;53.204;6.568;2023-06-22T06:57:34;21.30;66.60
51801;DHT22;37855;53.204;6.568;2023-06-22T07:00:00;21.10;67.00
51801;DHT22;37855;53.204;6.568;2023-06-22T07:02:28;21.20;67.30
51801;DHT22;37855;53.204;6.568;2023-06-22T07:04:54;21.30;67.40
51801;DHT22;37855;53.204;6.568;2023-06-22T07:07:24;21.40;67.40
51801;DHT22;37855;53.204;6.568;2023-06-22T07:09:49;21.50;66.80
51801;DHT22;37855;53.204;6.568;2023-06-22T07:12:15;21.60;66.30
51801;DHT22;37855;53.204;6.568;2023-06-22T07:14:42;21.70;64.90
51801;DHT22;37855;53.204;6.568;2023-06-22T07:17:08;21.70;64.90
51801;DHT22;37855;53.204;6.568;2023-06-22T07:19:33;21.70;64.90
51801;DHT22;37855;53.204;6.568;2023-06-22T07:21:59;21.90;65.10
51801;DHT22;37855;53.204;6.568;2023-06-22T07:24:25;22.00;64.70
51801;DHT22;37855;53.204;6.568;2023-06-22T07:26:52;22.10;64.70
51801;DHT22;37855;53.204;6.568;2023-06-22T07:29:19;22.20;63.60
51801;DHT22;37855;53.204;6.568;2023-06-22T07:31:51;22.20;63.10
51801;DHT22;37855;53.204;6.568;2023-06-22T07:34:18;22.20;63.60
51801;DHT22;37855;53.204;6.568;2023-06-22T07:36:45;22.30;62.60
51801;DHT22;37855;53.204;6.568;2023-06-22T07:39:11;22.20;62.50
51801;DHT22;37855;53.204;6.568;2023-06-22T07:41:39;22.30;62.30
51801;DHT22;37855;53.204;6.568;2023-06-22T07:44:05;22.20;62.80
51801;DHT22;37855;53.204;6.568;2023-06-22T07:46:32;22.20;63.10
51801;DHT22;37855;53.204;6.568;2023-06-22T07:48:57;22.30;62.90
51801;DHT22;37855;53.204;6.568;2023-06-22T07:51:25;22.30;62.60
51801;DHT22;37855;53.204;6.568;2023-06-22T07:53:51;22.40;62.70
51801;DHT22;37855;53.204;6.568;2023-06-22T07:56:17;22.50;62.20
51801;DHT22;37855;53.204;6.568;2023-06-22T07:58:47;22.60;61.70
51801;DHT22;37855;53.204;6.568;2023-06-22T08:01:14;22.70;60.60
51801;DHT22;37855;53.204;6.568;2023-06-22T08:03:40;22.60;60.30
51801;DHT22;37855;53.204;6.568;2023-06-22T08:06:08;22.50;60.70
51801;DHT22;37855;53.204;6.568;2023-06-22T08:08:35;22.60;60.80
51801;DHT22;37855;53.204;6.568;2023-06-22T08:11:01;22.70;61.00
51801;DHT22;37855;53.204;6.568;2023-06-22T08:13:26;22.80;60.60
51801;DHT22;37855;53.204;6.568;2023-06-22T08:15:52;22.80;60.10
51801;DHT22;37855;53.204;6.568;2023-06-22T08:18:18;22.70;60.10
51801;DHT22;37855;53.204;6.568;2023-06-22T08:20:43;22.90;59.50
51801;DHT22;37855;53.204;6.568;2023-06-22T08:23:09;22.80;59.90
51801;DHT22;37855;53.204;6.568;2023-06-22T08:25:35;22.80;59.10
51801;DHT22;37855;53.204;6.568;2023-06-22T08:28:03;22.70;59.70
51801;DHT22;37855;53.204;6.568;2023-06-22T08:30:29;22.80;59.80
51801;DHT22;37855;53.204;6.568;2023-06-22T08:32:54;22.80;60.00
51801;DHT22;37855;53.204;6.568;2023-06-22T08:35:22;22.80;59.50
51801;DHT22;37855;53.204;6.568;2023-06-22T08:37:48;22.90;60.00
51801;DHT22;37855;53.204;6.568;2023-06-22T08:40:18;23.10;59.90
51801;DHT22;37855;53.204;6.568;2023-06-22T08:42:46;23.30;59.10
51801;DHT22;37855;53.204;6.568;2023-06-22T08:45:12;23.40;58.20
51801;DHT22;37855;53.204;6.568;2023-06-22T08:47:39;23.40;57.80
51801;DHT22;37855;53.204;6.568;2023-06-22T08:50:07;23.50;57.40
51801;DHT22;37855;53.204;6.568;2023-06-22T08:52:34;23.40;57.80
51801;DHT22;37855;53.204;6.568;2023-06-22T08:55:00;23.40;57.40
51801;DHT22;37855;53.204;6.568;2023-06-22T08:57:26;23.50;57.20
51801;DHT22;37855;53.204;6.568;2023-06-22T08:59:52;23.50;57.20
51801;DHT22;37855;53.204;6.568;2023-06-22T09:02:26;23.50;57.30
51801;DHT22;37855;53.204;6.568;2023-06-22T09:04:56;23.50;58.20
51801;DHT22;37855;53.204;6.568;2023-06-22T09:07:23;23.70;58.60
51801;DHT22;37855;53.204;6.568;2023-06-22T09:09:50;23.80;57.60
51801;DHT22;37855;53.204;6.568;2023-06-22T09:12:17;23.90;56.90
51801;DHT22;37855;53.204;6.568;2023-06-22T09:14:42;23.80;56.60
51801;DHT22;37855;53.204;6.568;2023-06-22T09:17:08;23.80;56.80
51801;DHT22;37855;53.204;6.568;2023-06-22T09:19:36;23.70;57.40
51801;DHT22;37855;53.204;6.568;2023-06-22T09:22:02;23.70;57.40
51801;DHT22;37855;53.204;6.568;2023-06-22T09:24:28;23.70;57.50
51801;DHT22;37855;53.204;6.568;2023-06-22T09:26:54;23.90;57.70
51801;DHT22;37855;53.204;6.568;2023-06-22T09:29:20;23.90;57.60
51801;DHT22;37855;53.204;6.568;2023-06-22T09:31:45;24.00;57.00
51801;DHT22;37855;53.204;6.568;2023-06-22T09:34:11;23.80;57.30
51801;DHT22;37855;53.204;6.568;2023-06-22T09:36:37;23.80;57.60
51801;DHT22;37855;53.204;6.568;2023-06-22T09:39:05;24.00;56.70
51801;DHT22;37855;53.204;6.568;2023-06-22T09:41:32;24.00;57.10
51801;DHT22;37855;53.204;6.568;2023-06-22T09:44:00;24.20;57.00
51801;DHT22;37855;53.204;6.568;2023-06-22T09:46:29;24.30;57.00
51801;DHT22;37855;53.204;6.568;2023-06-22T09:48:55;24.50;56.50
51801;DHT22;37855;53.204;6.568;2023-06-22T09:51:20;24.60;56.20
51801;DHT22;37855;53.204;6.568;2023-06-22T09:53:47;24.60;56.00
51801;DHT22;37855;53.204;6.568;2023-06-22T09:56:13;24.80;55.50
51801;DHT22;37855;53.204;6.568;2023-06-22T09:58:44;24.90;56.10
51801;DHT22;37855;53.204;6.568;2023-06-22T10:01:10;25.10;56.20
51801;DHT22;37855;53.204;6.568;2023-06-22T10:03:36;25.20;55.50
51801;DHT22;37855;53.204;6.568;2023-06-22T10:06:03;25.20;55.30
51801;DHT22;37855;53.204;6.568;2023-06-22T10:08:29;25.20;54.60
51801;DHT22;37855;53.204;6.568;2023-06-22T10:10:55;25.10;55.20
51801;DHT22;37855;53.204;6.568;2023-06-22T10:13:24;25.10;55.20
51801;DHT22;37855;53.204;6.568;2023-06-22T10:15:49;25.10;55.40
51801;DHT22;37855;53.204;6.568;2023-06-22T10:18:17;25.00;55.20
51801;DHT22;37855;53.204;6.568;2023-06-22T10:20:47;24.90;55.10
51801;DHT22;37855;53.204;6.568;2023-06-22T10:23:13;24.90;55.50
51801;DHT22;37855;53.204;6.568;2023-06-22T10:25:39;24.80;55.50
51801;DHT22;37855;53.204;6.568;2023-06-22T10:28:05;25.00;55.50
51801;DHT22;37855;53.204;6.568;2023-06-22T10:30:33;25.00;55.70
51801;DHT22;37855;53.204;6.568;2023-06-22T10:32:59;25.20;55.40
51801;DHT22;37855;53.204;6.568;2023-06-22T10:35:25;25.30;54.90
51801;DHT22;37855;53.204;6.568;2023-06-22T10:37:50;25.10;55.00
51801;DHT22;37855;53.204;6.568;2023-06-22T10:40:17;25.00;55.20
51801;DHT22;37855;53.204;6.568;2023-06-22T10:42:44;24.90;55.40
51801;DHT22;37855;53.204;6.568;2023-06-22T10:45:10;24.90;55.40
51801;DHT22;37855;53.204;6.568;2023-06-22T10:47:36;24.90;55.50
51801;DHT22;37855;53.204;6.568;2023-06-22T10:50:02;25.00;55.50
51801;DHT22;37855;53.204;6.568;2023-06-22T10:52:29;25.10;55.10
51801;DHT22;37855;53.204;6.568;2023-06-22T10:54:56;25.10;54.90
51801;DHT22;37855;53.204;6.568;2023-06-22T10:57:23;25.10;54.90
51801;DHT22;37855;53.204;6.568;2023-06-22T10:59:54;25.10;55.20
51801;DHT22;37855;53.204;6.568;2023-06-22T11:02:20;25.20;54.80
51801;DHT22;37855;53.204;6.568;2023-06-22T11:04:46;25.20;54.60
51801;DHT22;37855;53.204;6.568;2023-06-22T11:07:13;25.20;54.40
51801;DHT22;37855;53.204;6.568;2023-06-22T11:09:38;25.30;54.50
51801;DHT22;37855;53.204;6.568;2023-06-22T11:12:05;25.30;54.20
51801;DHT22;37855;53.204;6.568;2023-06-22T11:14:31;25.30;54.30
51801;DHT22;37855;53.204;6.568;2023-06-22T11:16:59;25.30;54.60
51801;DHT22;37855;53.204;6.568;2023-06-22T11:19:24;25.20;53.90
51801;DHT22;37855;53.204;6.568;2023-06-22T11:21:50;25.20;53.70
51801;DHT22;37855;53.204;6.568;2023-06-22T11:24:16;25.20;53.80
51801;DHT22;37855;53.204;6.568;2023-06-22T11:26:43;25.10;54.90
51801;DHT22;37855;53.204;6.568;2023-06-22T11:29:11;25.10;55.30
51801;DHT22;37855;53.204;6.568;2023-06-22T11:31:37;25.20;54.90
51801;DHT22;37855;53.204;6.568;2023-06-22T11:34:03;25.30;54.50
51801;DHT22;37855;53.204;6.568;2023-06-22T11:36:29;25.30;54.50
51801;DHT22;37855;53.204;6.568;2023-06-22T11:38:58;25.20;54.30
51801;DHT22;37855;53.204;6.568;2023-06-22T11:41:24;25.20;54.30
51801;DHT22;37855;53.204;6.568;2023-06-22T11:43:50;25.10;54.80
51801;DHT22;37855;53.204;6.568;2023-06-22T11:46:15;25.10;54.90
51801;DHT22;37855;53.204;6.568;2023-06-22T11:48:41;25.10;55.00
51801;DHT22;37855;53.204;6.568;2023-06-22T11:51:08;25.10;54.90
51801;DHT22;37855;53.204;6.568;2023-06-22T11:53:34;25.10;55.10
51801;DHT22;37855;53.204;6.568;2023-06-22T11:56:03;25.10;55.40
51801;DHT22;37855;53.204;6.568;2023-06-22T11:58:28;25.10;55.50
51801;DHT22;37855;53.204;6.568;2023-06-22T12:00:54;25.10;55.30
51801;DHT22;37855;53.204;6.568;2023-06-22T12:03:21;25.10;55.20
51801;DHT22;37855;53.204;6.568;2023-06-22T12:05:52;25.00;55.50
51801;DHT22;37855;53.204;6.568;2023-06-22T12:08:17;24.90;55.70
51801;DHT22;37855;53.204;6.568;2023-06-22T12:10:44;25.00;55.70
51801;DHT22;37855;53.204;6.568;2023-06-22T12:13:09;25.00;55.70
51801;DHT22;37855;53.204;6.568;2023-06-22T12:15:35;25.00;55.80
51801;DHT22;37855;53.204;6.568;2023-06-22T12:18:01;24.90;55.80
51801;DHT22;37855;53.204;6.568;2023-06-22T12:20:27;24.90;55.90
51801;DHT22;37855;53.204;6.568;2023-06-22T12:22:52;24.80;56.00
51801;DHT22;37855;53.204;6.568;2023-06-22T12:25:22;24.80;55.80
51801;DHT22;37855;53.204;6.568;2023-06-22T12:27:51;24.70;56.20
51801;DHT22;37855;53.204;6.568;2023-06-22T12:30:17;24.70;56.40
51801;DHT22;37855;53.204;6.568;2023-06-22T12:32:42;24.80;56.20
51801;DHT22;37855;53.204;6.568;2023-06-22T12:35:08;24.70;56.30
51801;DHT22;37855;53.204;6.568;2023-06-22T12:37:40;24.60;56.70
51801;DHT22;37855;53.204;6.568;2023-06-22T12:40:06;24.60;56.60
51801;DHT22;37855;53.204;6.568;2023-06-22T12:42:32;24.60;56.50
51801;DHT22;37855;53.204;6.568;2023-06-22T12:44:58;24.60;56.70
51801;DHT22;37855;53.204;6.568;2023-06-22T12:47:24;24.70;56.80
51801;DHT22;37855;53.204;6.568;2023-06-22T12:49:49;24.70;56.80
51801;DHT22;37855;53.204;6.568;2023-06-22T12:52:15;24.70;56.70
51801;DHT22;37855;53.204;6.568;2023-06-22T12:54:41;24.70;56.50
51801;DHT22;37855;53.204;6.568;2023-06-22T12:57:06;24.70;56.40
51801;DHT22;37855;53.204;6.568;2023-06-22T12:59:32;24.80;56.40
51801;DHT22;37855;53.204;6.568;2023-06-22T13:01:59;24.70;56.10
51801;DHT22;37855;53.204;6.568;2023-06-22T13:04:25;24.70;56.00
51801;DHT22;37855;53.204;6.568;2023-06-22T13:06:50;24.60;56.30
51801;DHT22;37855;53.204;6.568;2023-06-22T13:09:19;24.50;56.40
51801;DHT22;37855;53.204;6.568;2023-06-22T13:11:45;24.40;56.40
51801;DHT22;37855;53.204;6.568;2023-06-22T13:14:11;24.30;56.60
51801;DHT22;37855;53.204;6.568;2023-06-22T13:16:37;24.20;56.90
51801;DHT22;37855;53.204;6.568;2023-06-22T13:19:02;24.20;56.70
51801;DHT22;37855;53.204;6.568;2023-06-22T13:21:29;24.20;56.60
51801;DHT22;37855;53.204;6.568;2023-06-22T13:23:55;24.20;56.00
51801;DHT22;37855;53.204;6.568;2023-06-22T13:26:21;24.10;56.10
51801;DHT22;37855;53.204;6.568;2023-06-22T13:28:47;24.10;56.20
51801;DHT22;37855;53.204;6.568;2023-06-22T13:31:13;24.10;56.00
51801;DHT22;37855;53.204;6.568;2023-06-22T13:33:39;24.10;56.10
51801;DHT22;37855;53.204;6.568;2023-06-22T13:36:06;24.10;56.30
51801;DHT22;37855;53.204;6.568;2023-06-22T13:38:36;24.10;56.30
51801;DHT22;37855;53.204;6.568;2023-06-22T13:41:04;24.10;56.40
51801;DHT22;37855;53.204;6.568;2023-06-22T13:43:30;24.10;55.80
51801;DHT22;37855;53.204;6.568;2023-06-22T13:45:56;24.10;55.70
51801;DHT22;37855;53.204;6.568;2023-06-22T13:48:22;24.10;56.00
51801;DHT22;37855;53.204;6.568;2023-06-22T13:50:49;24.00;55.70
51801;DHT22;37855;53.204;6.568;2023-06-22T13:53:16;23.90;56.00
51801;DHT22;37855;53.204;6.568;2023-06-22T13:55:43;23.90;56.10
51801;DHT22;37855;53.204;6.568;2023-06-22T13:58:08;23.80;55.90
51801;DHT22;37855;53.204;6.568;2023-06-22T14:00:34;23.70;56.30
51801;DHT22;37855;53.204;6.568;2023-06-22T14:03:00;23.70;56.40
51801;DHT22;37855;53.204;6.568;2023-06-22T14:05:25;23.70;56.30
51801;DHT22;37855;53.204;6.568;2023-06-22T14:07:52;23.70;56.30
51801;DHT22;37855;53.204;6.568;2023-06-22T14:10:17;23.70;56.40
51801;DHT22;37855;53.204;6.568;2023-06-22T14:12:43;23.60;56.60
51801;DHT22;37855;53.204;6.568;2023-06-22T14:15:10;23.60;56.70
51801;DHT22;37855;53.204;6.568;2023-06-22T14:17:36;23.50;57.00
51801;DHT22;37855;53.204;6.568;2023-06-22T14:20:02;23.40;57.10
51801;DHT22;37855;53.204;6.568;2023-06-22T14:22:29;23.30;57.20
51801;DHT22;37855;53.204;6.568;2023-06-22T14:24:58;23.20;56.80
51801;DHT22;37855;53.204;6.568;2023-06-22T14:27:24;23.10;56.80
51801;DHT22;37855;53.204;6.568;2023-06-22T14:29:49;23.00;56.20
51801;DHT22;37855;53.204;6.568;2023-06-22T14:32:37;22.90;56.10
51801;DHT22;37855;53.204;6.568;2023-06-22T14:35:03;22.80;56.00
51801;DHT22;37855;53.204;6.568;2023-06-22T14:37:29;22.90;55.80
51801;DHT22;37855;53.204;6.568;2023-06-22T14:39:55;22.90;55.70
51801;DHT22;37855;53.204;6.568;2023-06-22T14:42:20;22.90;55.30
51801;DHT22;37855;53.204;6.568;2023-06-22T14:44:47;22.90;55.30
51801;DHT22;37855;53.204;6.568;2023-06-22T14:47:14;22.90;55.10
51801;DHT22;37855;53.204;6.568;2023-06-22T14:49:39;22.90;54.90
51801;DHT22;37855;53.204;6.568;2023-06-22T14:52:06;22.80;55.20
51801;DHT22;37855;53.204;6.568;2023-06-22T14:54:34;22.90;54.90
51801;DHT22;37855;53.204;6.568;2023-06-22T14:56:59;22.90;54.70
51801;DHT22;37855;53.204;6.568;2023-06-22T14:59:25;22.80;54.30
51801;DHT22;37855;53.204;6.568;2023-06-22T15:01:51;22.70;54.40
51801;DHT22;37855;53.204;6.568;2023-06-22T15:04:16;22.60;54.90
51801;DHT22;37855;53.204;6.568;2023-06-22T15:06:42;22.60;55.00
51801;DHT22;37855;53.204;6.568;2023-06-22T15:09:09;22.40;55.20
51801;DHT22;37855;53.204;6.568;2023-06-22T15:11:35;22.40;55.50
51801;DHT22;37855;53.204;6.568;2023-06-22T15:14:01;22.40;55.10
51801;DHT22;37855;53.204;6.568;2023-06-22T15:16:26;22.30;55.00
51801;DHT22;37855;53.204;6.568;2023-06-22T15:18:52;22.30;54.80
51801;DHT22;37855;53.204;6.568;2023-06-22T15:21:18;22.20;55.00
51801;DHT22;37855;53.204;6.568;2023-06-22T15:23:44;22.20;55.10
51801;DHT22;37855;53.204;6.568;2023-06-22T15:26:10;22.20;54.90
51801;DHT22;37855;53.204;6.568;2023-06-22T15:28:36;22.20;55.00
51801;DHT22;37855;53.204;6.568;2023-06-22T15:31:03;22.10;55.40